createdAt,value
2023-02-11T00:01:35.255Z,102796.88
2023-02-11T00:03:39.729Z,102790.97
2023-02-11T00:05:42.524Z,102790.84
2023-02-11T00:07:45.329Z,102784.44
2023-02-11T00:09:48.096Z,102780.50
2023-02-11T00:11:50.858Z,102782.44
2023-02-11T00:13:53.680Z,102789.63
2023-02-11T00:15:58.063Z,102780.13
2023-02-11T00:18:00.811Z,102781.94
2023-02-11T00:20:07.924Z,102788.38
2023-02-11T00:22:11.036Z,102786.09
2023-02-11T00:24:13.831Z,102780.22
2023-02-11T00:26:19.143Z,102785.47
2023-02-11T00:28:22.593Z,102778.53
2023-02-11T00:30:25.747Z,102773.41
2023-02-11T00:32:29.858Z,102778.53
2023-02-11T00:34:32.935Z,102772.13
2023-02-11T00:36:41.012Z,102776.09
2023-02-11T00:38:44.661Z,102776.09
2023-02-11T00:40:47.439Z,102772.91
2023-02-11T00:42:50.242Z,102773.66
2023-02-11T00:44:53.073Z,102774.28
2023-02-11T00:46:55.857Z,102765.84
2023-02-11T00:48:58.663Z,102773.13
2023-02-11T00:51:01.485Z,102767.88
2023-02-11T00:53:05.720Z,102769.03
2023-02-11T00:55:09.193Z,102770.72
2023-02-11T00:57:12.016Z,102770.09
2023-02-11T00:59:14.860Z,102765.22
2023-02-11T01:01:20.188Z,102768.81
2023-02-11T01:03:23.030Z,102770.63
2023-02-11T01:05:26.216Z,102774.56
2023-02-11T01:07:29.474Z,102771.09
2023-02-11T01:09:33.624Z,102766.09
2023-02-11T01:11:36.758Z,102767.91
2023-02-11T01:13:40.614Z,102760.34
2023-02-11T01:15:43.406Z,102770.75
2023-02-11T01:17:46.567Z,102765.88
2023-02-11T01:19:49.468Z,102767.56
2023-02-11T01:21:52.232Z,102766.78
2023-02-11T01:23:58.013Z,102766.91
2023-02-11T01:26:02.296Z,102761.63
2023-02-11T01:28:05.424Z,102765.13
2023-02-11T01:30:10.467Z,102765.25
2023-02-11T01:32:13.165Z,102756.13
2023-02-11T01:34:16.004Z,102751.91
2023-02-11T01:36:18.920Z,102746.38
2023-02-11T01:38:24.328Z,102752.69
2023-02-11T01:40:28.804Z,102746.50
2023-02-11T01:42:33.804Z,102736.13
2023-02-11T01:44:39.977Z,102743.06
2023-02-11T01:46:43.012Z,102741.38
2023-02-11T01:48:50.312Z,102738.69
2023-02-11T01:50:58.074Z,102740.38
2023-02-11T01:53:21.839Z,102739.47
2023-02-11T01:55:47.535Z,102732.81
2023-02-11T01:57:56.216Z,102726.78
2023-02-11T02:00:05.477Z,102727.06
2023-02-11T02:02:22.783Z,102710.47
2023-02-11T02:04:31.467Z,102724.09
2023-02-11T02:06:36.859Z,102721.41
2023-02-11T02:08:44.812Z,102723.44
2023-02-11T02:10:49.548Z,102708.97
2023-02-11T02:12:54.085Z,102708.47
2023-02-11T02:15:28.459Z,102697.69
2023-02-11T02:17:41.796Z,102699.50
2023-02-11T02:20:12.468Z,102697.56
2023-02-11T02:22:47.781Z,102695.53
2023-02-11T02:25:17.123Z,102691.28
2023-02-11T02:27:30.868Z,102690.38
2023-02-11T02:29:54.366Z,102692.03
2023-02-11T02:32:27.903Z,102684.34
2023-02-11T02:34:38.631Z,102678.19
2023-02-11T02:36:48.838Z,102673.31
2023-02-11T02:38:54.991Z,102662.44
2023-02-11T02:41:02.468Z,102665.88
2023-02-11T02:43:06.033Z,102658.94
2023-02-11T02:45:12.081Z,102648.94
2023-02-11T02:47:14.852Z,102656.94
2023-02-11T02:49:19.173Z,102668.47
2023-02-11T02:51:47.659Z,102659.22
2023-02-11T02:54:00.157Z,102662.69
2023-02-11T02:56:10.588Z,102651.94
2023-02-11T02:58:47.213Z,102654.75
2023-02-11T03:00:59.252Z,102663.31
2023-02-11T03:03:17.606Z,102656.25
2023-02-11T03:05:27.777Z,102656.25
2023-02-11T03:07:41.077Z,102650.50
2023-02-11T03:09:49.392Z,102654.50
2023-02-11T03:11:52.310Z,102653.56
2023-02-11T03:13:56.288Z,102659.63
2023-02-11T03:16:03.356Z,102660.38
2023-02-11T03:18:08.519Z,102661.25
2023-02-11T03:20:15.949Z,102656.75
2023-02-11T03:22:23.676Z,102673.06
2023-02-11T03:24:31.603Z,102680.25
2023-02-11T03:26:38.936Z,102677.28
2023-02-11T03:28:48.855Z,102675.38
2023-02-11T03:30:58.300Z,102687.72
2023-02-11T03:33:08.039Z,102676.03
2023-02-11T03:35:16.490Z,102680.53
2023-02-11T03:37:24.592Z,102685.38
2023-02-11T03:39:34.268Z,102686.28
2023-02-11T03:41:38.130Z,102674.59
2023-02-11T03:43:45.080Z,102677.69
2023-02-11T03:45:51.062Z,102667.56
2023-02-11T03:47:58.681Z,102661.53
2023-02-11T03:50:05.552Z,102654.50
2023-02-11T03:52:11.291Z,102652.19
2023-02-11T03:54:21.446Z,102651.69
2023-02-11T03:56:28.286Z,102655.75
2023-02-11T03:58:31.582Z,102660.75
2023-02-11T04:00:37.785Z,102654.50
2023-02-11T04:02:41.689Z,102657.94
2023-02-11T04:04:45.068Z,102639.09
2023-02-11T04:06:47.855Z,102644.38
2023-02-11T04:08:50.664Z,102638.31
2023-02-11T04:10:54.757Z,102635.00
2023-02-11T04:12:57.647Z,102633.72
2023-02-11T04:15:00.403Z,102635.00
2023-02-11T04:17:03.680Z,102629.63
2023-02-11T04:19:06.384Z,102626.53
2023-02-11T04:21:09.245Z,102619.22
2023-02-11T04:23:12.057Z,102628.72
2023-02-11T04:25:14.878Z,102622.28
2023-02-11T04:27:18.944Z,102620.09
2023-02-11T04:29:21.797Z,102618.22
2023-02-11T04:31:24.759Z,102614.34
2023-02-11T04:33:27.701Z,102614.59
2023-02-11T04:35:30.409Z,102600.38
2023-02-11T04:37:33.401Z,102600.22
2023-02-11T04:39:36.411Z,102598.56
2023-02-11T04:41:39.159Z,102595.09
2023-02-11T04:43:43.253Z,102596.53
2023-02-11T04:45:46.065Z,102589.97
2023-02-11T04:47:48.854Z,102585.75
2023-02-11T04:49:51.798Z,102580.00
2023-02-11T04:51:54.620Z,102579.06
2023-02-11T04:53:57.391Z,102581.50
2023-02-11T04:56:00.284Z,102583.06
2023-02-11T04:58:03.007Z,102582.94
2023-02-11T05:00:08.256Z,102596.00
2023-02-11T05:02:11.047Z,102607.28
2023-02-11T05:04:13.881Z,102615.38
2023-02-11T05:06:16.743Z,102619.22
2023-02-11T05:08:19.517Z,102620.34
2023-02-11T05:10:22.321Z,102618.97
2023-02-11T05:12:25.123Z,102624.34
2023-02-11T05:14:27.989Z,102620.84
2023-02-11T05:16:32.356Z,102633.28
2023-02-11T05:18:35.096Z,102630.59
2023-02-11T05:20:39.154Z,102631.22
2023-02-11T05:22:41.994Z,102629.19
2023-02-11T05:24:44.742Z,102618.94
2023-02-11T05:26:47.591Z,102626.50
2023-02-11T05:28:50.371Z,102636.75
2023-02-11T05:30:53.198Z,102632.25
2023-02-11T05:32:57.606Z,102643.53
2023-02-11T05:35:00.427Z,102638.91
2023-02-11T05:37:03.247Z,102635.31
2023-02-11T05:39:06.055Z,102633.66
2023-02-11T05:41:08.912Z,102626.88
2023-02-11T05:43:11.658Z,102611.50
2023-02-11T05:45:14.527Z,102605.44
2023-02-11T05:47:17.278Z,102602.50
2023-02-11T05:49:21.473Z,102614.34
2023-02-11T05:51:25.214Z,102619.47
2023-02-11T05:53:27.985Z,102624.47
2023-02-11T05:55:30.871Z,102624.19
2023-02-11T05:57:33.615Z,102614.72
2023-02-11T05:59:36.352Z,102617.13
2023-02-11T06:01:39.157Z,102617.41
2023-02-11T06:03:42.047Z,102620.47
2023-02-11T06:05:46.762Z,102620.72
2023-02-11T06:07:49.596Z,102616.25
2023-02-11T06:09:52.438Z,102615.59
2023-02-11T06:11:55.243Z,102612.53
2023-02-11T06:13:58.016Z,102613.84
2023-02-11T06:16:02.660Z,102612.78
2023-02-11T06:18:06.230Z,102618.84
2023-02-11T06:20:10.697Z,102612.16
2023-02-11T06:22:14.857Z,102617.91
2023-02-11T06:24:33.095Z,102617.66
2023-02-11T06:26:40.450Z,102603.44
2023-02-11T06:28:43.257Z,102602.28
2023-02-11T06:30:46.381Z,102598.19
2023-02-11T06:32:49.344Z,102611.25
2023-02-11T06:34:52.201Z,102606.63
2023-02-11T06:36:54.991Z,102606.78
2023-02-11T06:38:59.181Z,102608.69
2023-02-11T06:41:01.923Z,102610.09
2023-02-11T06:43:04.656Z,102611.25
2023-02-11T06:45:09.320Z,102613.56
2023-02-11T06:47:12.195Z,102623.28
2023-02-11T06:49:15.384Z,102632.91
2023-02-11T06:51:18.437Z,102646.13
2023-02-11T06:53:21.373Z,102627.41
2023-02-11T06:55:25.489Z,102628.16
2023-02-11T06:57:28.208Z,102627.13
2023-02-11T06:59:30.969Z,102618.28
2023-02-11T07:01:33.929Z,102620.47
2023-02-11T07:03:38.507Z,102622.28
2023-02-11T07:05:43.450Z,102624.84
2023-02-11T07:07:46.073Z,102630.69
2023-02-11T07:09:48.905Z,102626.88
2023-02-11T07:11:53.138Z,102640.09
2023-02-11T07:13:57.915Z,102639.47
2023-02-11T07:16:00.732Z,102639.69
2023-02-11T07:18:04.095Z,102638.78
2023-02-11T07:20:07.659Z,102634.47
2023-02-11T07:22:10.450Z,102638.41
2023-02-11T07:24:14.275Z,102631.91
2023-02-11T07:26:18.492Z,102626.75
2023-02-11T07:28:22.654Z,102631.91
2023-02-11T07:30:25.488Z,102633.97
2023-02-11T07:32:28.311Z,102637.41
2023-02-11T07:34:31.120Z,102637.41
2023-02-11T07:36:34.140Z,102642.53
2023-02-11T07:38:37.837Z,102640.50
2023-02-11T07:40:40.746Z,102629.59
2023-02-11T07:42:43.557Z,102635.09
2023-02-11T07:44:50.343Z,102626.66
2023-02-11T07:46:53.377Z,102627.66
2023-02-11T07:48:56.568Z,102632.81
2023-02-11T07:51:06.794Z,102637.06
2023-02-11T07:53:09.512Z,102646.38
2023-02-11T07:55:12.463Z,102645.88
2023-02-11T07:57:15.319Z,102644.75
2023-02-11T07:59:18.055Z,102643.88
2023-02-11T08:01:25.426Z,102640.88
2023-02-11T08:03:28.468Z,102644.13
2023-02-11T08:05:31.416Z,102642.19
2023-02-11T08:07:34.273Z,102644.88
2023-02-11T08:09:36.982Z,102647.06
2023-02-11T08:11:39.875Z,102647.94
2023-02-11T08:13:43.465Z,102649.50
2023-02-11T08:15:46.264Z,102645.00
2023-02-11T08:17:50.471Z,102640.00
2023-02-11T08:19:53.274Z,102645.25
2023-02-11T08:21:56.912Z,102647.44
2023-02-11T08:23:59.756Z,102636.41
2023-02-11T08:26:03.397Z,102635.22
2023-02-11T08:28:06.248Z,102634.06
2023-02-11T08:30:10.180Z,102627.38
2023-02-11T08:32:12.996Z,102627.91
2023-02-11T08:34:19.237Z,102626.34
2023-02-11T08:36:24.275Z,102644.06
2023-02-11T08:38:27.127Z,102644.66
2023-02-11T08:40:29.954Z,102641.72
2023-02-11T08:42:32.707Z,102645.56
2023-02-11T08:44:35.491Z,102632.97
2023-02-11T08:46:38.229Z,102643.63
2023-02-11T08:48:41.059Z,102637.84
2023-02-11T08:50:45.181Z,102634.06
2023-02-11T08:52:47.962Z,102632.53
2023-02-11T08:54:50.816Z,102629.16
2023-02-11T08:56:53.706Z,102632.25
2023-02-11T08:58:56.538Z,102636.34
2023-02-11T09:00:59.820Z,102635.72
2023-02-11T09:03:02.816Z,102637.22
2023-02-11T09:05:05.967Z,102637.34
2023-02-11T09:07:10.172Z,102648.50
2023-02-11T09:09:14.861Z,102648.75
2023-02-11T09:11:18.955Z,102647.47
2023-02-11T09:13:21.694Z,102650.38
2023-02-11T09:15:24.594Z,102652.31
2023-02-11T09:17:33.932Z,102653.16
2023-02-11T09:19:36.866Z,102650.16
2023-02-11T09:21:39.851Z,102659.91
2023-02-11T09:23:44.814Z,102661.28
2023-02-11T09:25:47.425Z,102660.38
2023-02-11T09:27:51.346Z,102651.22
2023-02-11T09:29:54.106Z,102655.28
2023-02-11T09:31:57.014Z,102653.00
2023-02-11T09:34:01.956Z,102658.63
2023-02-11T09:36:06.144Z,102657.75
2023-02-11T09:38:08.887Z,102665.41
2023-02-11T09:40:13.944Z,102656.06
2023-02-11T09:42:38.534Z,102656.06
2023-02-11T09:44:41.645Z,102656.97
2023-02-11T09:46:47.880Z,102649.03
2023-02-11T09:48:53.444Z,102650.84
2023-02-11T09:50:59.724Z,102649.63
2023-02-11T09:53:05.663Z,102653.09
2023-02-11T09:55:19.764Z,102642.09
2023-02-11T09:57:28.805Z,102651.97
2023-02-11T09:59:32.066Z,102651.19
2023-02-11T10:01:42.839Z,102652.41
2023-02-11T10:04:06.470Z,102647.44
2023-02-11T10:06:30.659Z,102647.09
2023-02-11T10:08:42.543Z,102650.34
2023-02-11T10:10:53.159Z,102641.59
2023-02-11T10:13:16.078Z,102647.91
2023-02-11T10:15:37.551Z,102645.19
2023-02-11T10:17:51.272Z,102649.75
2023-02-11T10:20:06.818Z,102638.41
2023-02-11T10:22:19.241Z,102645.94
2023-02-11T10:24:23.170Z,102640.06
2023-02-11T10:26:32.335Z,102643.06
2023-02-11T10:28:35.799Z,102643.25
2023-02-11T10:30:42.550Z,102643.94
2023-02-11T10:32:49.576Z,102647.63
2023-02-11T10:34:56.984Z,102648.06
2023-02-11T10:37:00.325Z,102647.69
2023-02-11T10:39:03.559Z,102652.47
2023-02-11T10:41:06.505Z,102646.34
2023-02-11T10:43:14.664Z,102643.50
2023-02-11T10:45:23.582Z,102638.16
2023-02-11T10:47:29.589Z,102633.97
2023-02-11T10:49:38.392Z,102634.38
2023-02-11T10:51:41.219Z,102631.28
2023-02-11T10:53:44.871Z,102627.44
2023-02-11T10:55:53.458Z,102635.19
2023-02-11T10:57:59.613Z,102638.91
2023-02-11T11:00:09.457Z,102635.25
2023-02-11T11:02:24.523Z,102635.91
2023-02-11T11:04:41.696Z,102634.44
2023-02-11T11:06:44.593Z,102632.38
2023-02-11T11:08:49.084Z,102630.41
2023-02-11T11:11:04.883Z,102631.81
2023-02-11T11:13:25.490Z,102629.81
2023-02-11T11:15:31.567Z,102627.22
2023-02-11T11:17:34.515Z,102630.81
2023-02-11T11:19:39.159Z,102635.59
2023-02-11T11:21:44.357Z,102635.78
2023-02-11T11:23:53.793Z,102631.00
2023-02-11T11:26:05.095Z,102641.44
2023-02-11T11:28:19.885Z,102644.78
2023-02-11T11:30:26.714Z,102641.50
2023-02-11T11:32:33.289Z,102640.91
2023-02-11T11:34:39.759Z,102641.72
2023-02-11T11:36:42.636Z,102645.13
2023-02-11T11:38:50.134Z,102647.47
2023-02-11T11:41:14.557Z,102646.78
2023-02-11T11:43:23.035Z,102649.34
2023-02-11T11:45:27.590Z,102652.44
2023-02-11T11:47:37.000Z,102656.50
2023-02-11T11:49:44.951Z,102641.75
2023-02-11T11:51:56.020Z,102647.25
2023-02-11T11:54:02.334Z,102644.25
2023-02-11T11:56:07.882Z,102637.31
2023-02-11T11:58:16.380Z,102630.91
2023-02-11T12:00:22.676Z,102628.69
2023-02-11T12:02:51.946Z,102627.44
2023-02-11T12:05:02.600Z,102617.38
2023-02-11T12:07:18.801Z,102628.78
2023-02-11T12:09:29.828Z,102609.41
2023-02-11T12:11:42.730Z,102618.09
2023-02-11T12:13:57.905Z,102613.22
2023-02-11T12:16:11.310Z,102607.84
2023-02-11T12:18:32.806Z,102602.22
2023-02-11T12:20:44.530Z,102600.81
2023-02-11T12:23:02.080Z,102605.22
2023-02-11T12:25:27.236Z,102601.63
2023-02-11T12:27:48.904Z,102597.56
2023-02-11T12:30:04.308Z,102599.19
2023-02-11T12:32:15.880Z,102593.06
2023-02-11T12:34:42.899Z,102599.44
2023-02-11T12:37:02.817Z,102598.47
2023-02-11T12:39:18.806Z,102592.88
2023-02-11T12:41:53.324Z,102586.66
2023-02-11T12:43:56.193Z,102584.69
2023-02-11T12:46:23.947Z,102597.97
2023-02-11T12:48:46.413Z,102600.31
2023-02-11T12:50:59.219Z,102598.44
2023-02-11T12:53:21.346Z,102604.03
2023-02-11T12:55:26.807Z,102601.34
2023-02-11T12:57:33.292Z,102595.66
2023-02-11T12:59:48.736Z,102594.03
2023-02-11T13:01:52.910Z,102594.28
2023-02-11T13:04:02.000Z,102585.59
2023-02-11T13:06:09.343Z,102586.59
2023-02-11T13:08:16.948Z,102589.28
2023-02-11T13:10:30.935Z,102587.31
2023-02-11T13:12:56.134Z,102593.84
2023-02-11T13:15:04.070Z,102594.03
2023-02-11T13:17:18.764Z,102582.84
2023-02-11T13:19:27.785Z,102585.91
2023-02-11T13:21:42.000Z,102586.59
2023-02-11T13:23:51.089Z,102589.84
2023-02-11T13:26:00.431Z,102589.56
2023-02-11T13:28:23.698Z,102584.19
2023-02-11T13:30:32.412Z,102578.47
2023-02-11T13:33:06.517Z,102584.19
2023-02-11T13:35:29.268Z,102578.75
2023-02-11T13:37:38.100Z,102570.44
2023-02-11T13:39:40.927Z,102577.25
2023-02-11T13:41:45.099Z,102580.53
2023-02-11T13:43:59.832Z,102584.28
2023-02-11T13:46:04.510Z,102585.38
2023-02-11T13:48:09.948Z,102583.47
2023-02-11T13:50:24.801Z,102580.09
2023-02-11T13:52:30.607Z,102574.72
2023-02-11T13:54:39.018Z,102579.63
2023-02-11T13:56:44.037Z,102572.94
2023-02-11T13:58:48.910Z,102567.00
2023-02-11T14:00:52.660Z,102572.53
2023-02-11T14:03:41.687Z,102577.69
2023-02-11T14:06:30.327Z,102569.84
2023-02-11T14:08:50.503Z,102571.66
2023-02-11T14:10:56.762Z,102574.31
2023-02-11T14:13:22.939Z,102576.31
2023-02-11T14:15:28.726Z,102575.97
2023-02-11T14:17:33.861Z,102567.78
2023-02-11T14:19:38.460Z,102572.38
2023-02-11T14:21:44.061Z,102571.66
2023-02-11T14:23:48.341Z,102574.69
2023-02-11T14:26:26.797Z,102566.91
2023-02-11T14:28:34.170Z,102568.53
2023-02-11T14:30:47.411Z,102573.72
2023-02-11T14:33:07.174Z,102565.84
2023-02-11T14:35:18.241Z,102573.31
2023-02-11T14:37:33.926Z,102574.66
2023-02-11T14:39:56.941Z,102584.31
2023-02-11T14:42:03.515Z,102579.13
2023-02-11T14:44:14.065Z,102576.47
2023-02-11T14:46:18.703Z,102573.56
2023-02-11T14:48:28.335Z,102568.56
2023-02-11T14:50:38.739Z,102572.88
2023-02-11T14:52:44.164Z,102574.38
2023-02-11T14:54:49.584Z,102581.97
2023-02-11T14:57:11.109Z,102589.09
2023-02-11T14:59:18.830Z,102579.56
2023-02-11T15:01:29.040Z,102583.03
2023-02-11T15:03:34.879Z,102583.03
2023-02-11T15:05:37.867Z,102581.63
2023-02-11T15:07:45.393Z,102588.41
2023-02-11T15:09:51.163Z,102591.41
2023-02-11T15:11:55.116Z,102595.31
2023-02-11T15:14:02.744Z,102596.34
2023-02-11T15:16:09.161Z,102602.66
2023-02-11T15:18:22.630Z,102605.06
2023-02-11T15:20:28.266Z,102593.66
2023-02-11T15:22:36.775Z,102596.84
2023-02-11T15:24:40.439Z,102593.25
2023-02-11T15:26:43.264Z,102594.19
2023-02-11T15:28:52.034Z,102597.13
2023-02-11T15:31:01.684Z,102602.72
2023-02-11T15:33:06.812Z,102598.16
2023-02-11T15:35:13.594Z,102599.06
2023-02-11T15:37:21.831Z,102594.50
2023-02-11T15:39:32.452Z,102597.47
2023-02-11T15:41:37.664Z,102596.69
2023-02-11T15:43:45.530Z,102594.97
2023-02-11T15:45:57.931Z,102598.53
2023-02-11T15:48:09.109Z,102600.50
2023-02-11T15:50:21.877Z,102597.22
2023-02-11T15:52:27.406Z,102601.50
2023-02-11T15:54:32.069Z,102606.59
2023-02-11T15:56:43.254Z,102604.72
2023-02-11T15:58:48.790Z,102616.84
2023-02-11T16:00:59.544Z,102618.63
2023-02-11T16:03:04.208Z,102620.06
2023-02-11T16:05:10.345Z,102619.06
2023-02-11T16:07:39.630Z,102617.47
2023-02-11T16:09:43.815Z,102617.38
2023-02-11T16:11:57.982Z,102618.44
2023-02-11T16:14:04.570Z,102624.41
2023-02-11T16:16:20.682Z,102623.53
2023-02-11T16:18:39.377Z,102627.75
2023-02-11T16:20:48.262Z,102614.72
2023-02-11T16:22:51.271Z,102625.84
2023-02-11T16:24:58.010Z,102631.81
2023-02-11T16:27:02.658Z,102632.63
2023-02-11T16:29:13.176Z,102638.81
2023-02-11T16:31:16.287Z,102631.81
2023-02-11T16:33:19.113Z,102638.81
2023-02-11T16:35:23.343Z,102635.41
2023-02-11T16:37:26.619Z,102642.28
2023-02-11T16:39:29.434Z,102640.47
2023-02-11T16:41:32.259Z,102637.69
2023-02-11T16:43:35.076Z,102640.19
2023-02-11T16:45:38.634Z,102642.78
2023-02-11T16:47:42.421Z,102644.69
2023-02-11T16:49:45.365Z,102646.38
2023-02-11T16:51:52.728Z,102648.88
2023-02-11T16:53:55.598Z,102647.88
2023-02-11T16:55:58.329Z,102646.09
2023-02-11T16:58:01.067Z,102647.06
2023-02-11T17:00:06.302Z,102639.31
2023-02-11T17:02:13.874Z,102637.50
2023-02-11T17:04:20.187Z,102637.50
2023-02-11T17:06:22.981Z,102639.03
2023-02-11T17:08:27.269Z,102641.44
2023-02-11T17:10:30.774Z,102652.50
2023-02-11T17:12:33.580Z,102645.59
2023-02-11T17:14:36.373Z,102644.81
2023-02-11T17:16:39.292Z,102650.19
2023-02-11T17:18:42.120Z,102649.47
2023-02-11T17:20:44.949Z,102645.19
2023-02-11T17:22:47.772Z,102639.81
2023-02-11T17:24:51.930Z,102638.44
2023-02-11T17:26:54.863Z,102641.63
2023-02-11T17:28:57.652Z,102640.00
2023-02-11T17:31:00.917Z,102639.13
2023-02-11T17:33:03.924Z,102636.34
2023-02-11T17:35:07.527Z,102639.03
2023-02-11T17:37:10.304Z,102639.63
2023-02-11T17:39:13.659Z,102655.88
2023-02-11T17:41:17.844Z,102643.03
2023-02-11T17:43:20.662Z,102653.19
2023-02-11T17:45:23.602Z,102660.75
2023-02-11T17:47:26.506Z,102647.81
2023-02-11T17:49:29.279Z,102647.91
2023-02-11T17:51:34.000Z,102653.19
2023-02-11T17:53:36.799Z,102662.84
2023-02-11T17:55:39.525Z,102665.25
2023-02-11T17:57:44.209Z,102663.53
2023-02-11T17:59:47.177Z,102665.16
2023-02-11T18:01:50.072Z,102661.66
2023-02-11T18:03:52.928Z,102660.66
2023-02-11T18:06:00.738Z,102667.75
2023-02-11T18:08:04.106Z,102672.22
2023-02-11T18:10:08.071Z,102673.19
2023-02-11T18:12:11.930Z,102665.34
2023-02-11T18:14:16.118Z,102673.09
2023-02-11T18:16:19.055Z,102671.41
2023-02-11T18:18:21.996Z,102673.19
2023-02-11T18:20:24.805Z,102677.69
2023-02-11T18:22:27.936Z,102679.34
2023-02-11T18:24:31.055Z,102676.66
2023-02-11T18:26:33.900Z,102682.34
2023-02-11T18:28:36.831Z,102690.84
2023-02-11T18:30:41.179Z,102690.75
2023-02-11T18:32:44.538Z,102685.66
2023-02-11T18:34:47.354Z,102689.03
2023-02-11T18:36:50.344Z,102686.56
2023-02-11T18:38:54.189Z,102687.44
2023-02-11T18:40:58.562Z,102686.34
2023-02-11T18:43:01.313Z,102685.66
2023-02-11T18:45:05.164Z,102687.34
2023-02-11T18:47:09.314Z,102679.66
2023-02-11T18:49:13.143Z,102678.88
2023-02-11T18:51:18.634Z,102680.59
2023-02-11T18:53:21.842Z,102678.88
2023-02-11T18:55:25.882Z,102680.50
2023-02-11T18:57:28.705Z,102692.19
2023-02-11T18:59:31.655Z,102695.19
2023-02-11T19:01:34.666Z,102692.41
2023-02-11T19:03:38.880Z,102689.72
2023-02-11T19:05:42.658Z,102688.66
2023-02-11T19:07:45.481Z,102687.38
2023-02-11T19:09:48.233Z,102686.97
2023-02-11T19:11:51.173Z,102688.56
2023-02-11T19:13:53.944Z,102689.56
2023-02-11T19:15:56.685Z,102672.34
2023-02-11T19:17:59.513Z,102678.34
2023-02-11T19:20:05.961Z,102675.03
2023-02-11T19:22:10.785Z,102671.84
2023-02-11T19:24:15.450Z,102667.16
2023-02-11T19:26:18.220Z,102677.53
2023-02-11T19:28:22.068Z,102676.81
2023-02-11T19:30:24.901Z,102669.34
2023-02-11T19:32:28.052Z,102677.31
2023-02-11T19:34:30.962Z,102685.25
2023-02-11T19:36:35.447Z,102687.06
2023-02-11T19:38:39.128Z,102688.75
2023-02-11T19:40:41.936Z,102691.16
2023-02-11T19:42:44.844Z,102690.34
2023-02-11T19:44:47.659Z,102697.22
2023-02-11T19:46:52.779Z,102707.38
2023-02-11T19:48:55.844Z,102703.91
2023-02-11T19:50:58.700Z,102703.91
2023-02-11T19:53:03.046Z,102708.94
2023-02-11T19:55:06.474Z,102705.28
2023-02-11T19:57:09.247Z,102703.38
2023-02-11T19:59:12.453Z,102707.00
2023-02-11T20:01:17.656Z,102699.13
2023-02-11T20:03:20.589Z,102698.22
2023-02-11T20:05:23.556Z,102705.97
2023-02-11T20:07:26.351Z,102703.47
2023-02-11T20:09:31.157Z,102705.09
2023-02-11T20:11:34.548Z,102704.06
2023-02-11T20:13:38.472Z,102705.69
2023-02-11T20:15:41.285Z,102708.38
2023-02-11T20:17:45.355Z,102710.97
2023-02-11T20:19:48.156Z,102713.34
2023-02-11T20:21:53.565Z,102713.34
2023-02-11T20:23:56.405Z,102712.47
2023-02-11T20:26:05.279Z,102713.53
2023-02-11T20:28:08.021Z,102707.59
2023-02-11T20:30:11.621Z,102710.38
2023-02-11T20:32:15.638Z,102718.13
2023-02-11T20:34:18.870Z,102722.09
2023-02-11T20:36:23.900Z,102722.09
2023-02-11T20:38:27.587Z,102718.53
2023-02-11T20:40:30.374Z,102718.53
2023-02-11T20:42:34.499Z,102715.34
2023-02-11T20:44:37.628Z,102715.16
2023-02-11T20:46:42.426Z,102723.00
2023-02-11T20:48:45.204Z,102714.88
2023-02-11T20:50:48.417Z,102726.78
2023-02-11T20:52:51.275Z,102715.75
2023-02-11T20:54:54.071Z,102711.56
2023-02-11T20:56:58.128Z,102711.56
2023-02-11T20:59:03.806Z,102713.53
2023-02-11T21:01:10.384Z,102708.56
2023-02-11T21:03:13.279Z,102699.91
2023-02-11T21:05:16.049Z,102711.16
2023-02-11T21:07:19.364Z,102705.97
2023-02-11T21:09:23.909Z,102711.16
2023-02-11T21:11:26.807Z,102711.06
2023-02-11T21:13:29.650Z,102718.72
2023-02-11T21:15:33.763Z,102719.59
2023-02-11T21:17:36.601Z,102717.75
2023-02-11T21:19:39.481Z,102710.84
2023-02-11T21:21:42.510Z,102700.41
2023-02-11T21:23:45.338Z,102700.31
2023-02-11T21:25:48.471Z,102702.81
2023-02-11T21:27:51.277Z,102699.13
2023-02-11T21:29:54.919Z,102702.63
2023-02-11T21:31:59.102Z,102703.41
2023-02-11T21:34:01.913Z,102703.31
2023-02-11T21:36:07.689Z,102702.41
2023-02-11T21:38:10.493Z,102707.88
2023-02-11T21:40:14.847Z,102710.47
2023-02-11T21:42:17.665Z,102719.81
2023-02-11T21:44:20.476Z,102717.22
2023-02-11T21:46:23.633Z,102718.13
2023-02-11T21:48:28.307Z,102720.72
2023-02-11T21:50:31.093Z,102719.03
2023-02-11T21:52:33.895Z,102716.53
2023-02-11T21:54:36.726Z,102726.09
2023-02-11T21:56:40.541Z,102725.31
2023-02-11T21:58:43.969Z,102735.66
2023-02-11T22:00:46.783Z,102741.72
2023-02-11T22:02:49.929Z,102742.50
2023-02-11T22:04:54.145Z,102744.19
2023-02-11T22:06:56.963Z,102748.34
2023-02-11T22:09:03.026Z,102747.56
2023-02-11T22:11:07.064Z,102746.59
2023-02-11T22:13:09.868Z,102740.50
2023-02-11T22:15:12.965Z,102744.78
2023-02-11T22:17:15.782Z,102751.66
2023-02-11T22:19:18.907Z,102751.66
2023-02-11T22:21:23.926Z,102745.56
2023-02-11T22:23:26.831Z,102753.22
2023-02-11T22:25:29.620Z,102755.72
2023-02-11T22:27:32.465Z,102753.97
2023-02-11T22:29:35.311Z,102751.25
2023-02-11T22:31:38.271Z,102758.22
2023-02-11T22:33:41.729Z,102748.56
2023-02-11T22:35:44.517Z,102745.78
2023-02-11T22:37:48.673Z,102750.16
2023-02-11T22:39:51.441Z,102752.84
2023-02-11T22:41:56.428Z,102756.53
2023-02-11T22:43:59.487Z,102750.56
2023-02-11T22:46:03.308Z,102742.59
2023-02-11T22:48:06.636Z,102740.50
2023-02-11T22:50:09.995Z,102741.41
2023-02-11T22:52:12.943Z,102745.88
2023-02-11T22:54:18.421Z,102743.47
2023-02-11T22:56:22.053Z,102738.44
2023-02-11T22:58:25.681Z,102734.94
2023-02-11T23:00:32.455Z,102735.94
2023-02-11T23:02:35.294Z,102740.00
2023-02-11T23:04:38.127Z,102735.72
2023-02-11T23:06:41.086Z,102735.63
2023-02-11T23:08:44.453Z,102726.00
2023-02-11T23:10:49.220Z,102724.97
2023-02-11T23:12:51.939Z,102735.81
2023-02-11T23:14:54.724Z,102744.38
2023-02-11T23:16:57.530Z,102742.00
2023-02-11T23:19:01.507Z,102744.78
2023-02-11T23:21:06.626Z,102744.00
2023-02-11T23:23:09.619Z,102758.69
2023-02-11T23:25:12.417Z,102758.69
2023-02-11T23:27:16.572Z,102755.22
2023-02-11T23:29:19.380Z,102749.06
2023-02-11T23:31:24.379Z,102753.53
2023-02-11T23:33:27.311Z,102764.69
2023-02-11T23:35:30.155Z,102760.31
2023-02-11T23:37:32.908Z,102764.47
2023-02-11T23:39:35.953Z,102767.97
2023-02-11T23:41:38.707Z,102767.03
2023-02-11T23:43:42.848Z,102771.44
2023-02-11T23:45:45.588Z,102774.00
2023-02-11T23:47:48.510Z,102775.03
2023-02-11T23:49:51.324Z,102771.81
2023-02-11T23:51:54.126Z,102776.22
2023-02-11T23:53:57.051Z,102783.97
2023-02-11T23:55:59.846Z,102770.16
2023-02-11T23:58:02.751Z,102769.25
